Time;durP1;ratioP1;P1;durP2;ratioP2;P2;SDS_P1;SDS_P2;PMS_P1;PMS_P2;Temp;Humidity;BMP_temperature;BMP_pressure;BME280_temperature;BME280_humidity;BME280_pressure;Samples;Min_cycle;Max_cycle;Signal;HPM_P1;HPM_P2
2022/10/12 00:00:18;;;;;;;14.15;7.03;;;7.80;99.90;;;;;;5134358;27;20160;-53
2022/10/12 00:02:44;;;;;;;14.05;6.97;;;7.80;99.90;;;;;;5134094;27;20636;-53
2022/10/12 00:05:10;;;;;;;13.05;6.38;;;7.70;99.90;;;;;;5133449;27;20616;-53
2022/10/12 00:07:36;;;;;;;9.73;6.60;;;7.60;99.90;;;;;;5134375;27;20640;-53
2022/10/12 00:10:02;;;;;;;12.88;5.60;;;7.60;99.90;;;;;;5134634;27;20196;-53
2022/10/12 00:12:27;;;;;;;13.38;5.40;;;7.60;99.90;;;;;;5134345;27;20220;-53
2022/10/12 00:14:53;;;;;;;6.55;4.78;;;7.60;99.90;;;;;;5134217;27;20570;-53
2022/10/12 00:17:18;;;;;;;7.35;4.65;;;7.60;99.90;;;;;;5134177;27;20627;-53
2022/10/12 00:19:44;;;;;;;10.65;5.47;;;7.50;99.90;;;;;;5134196;27;20537;-53
2022/10/12 00:22:10;;;;;;;10.40;6.10;;;7.50;99.90;;;;;;5134309;27;20310;-53
2022/10/12 00:24:35;;;;;;;8.13;5.10;;;7.50;99.90;;;;;;5134053;27;20171;-53
2022/10/12 00:27:01;;;;;;;10.27;5.43;;;7.50;99.90;;;;;;5134283;27;20168;-53
2022/10/12 00:29:26;;;;;;;6.05;4.15;;;7.50;99.90;;;;;;5133805;27;20188;-53
2022/10/12 00:31:52;;;;;;;12.88;4.38;;;7.40;99.90;;;;;;5133840;27;20172;-53
2022/10/12 00:34:17;;;;;;;8.32;4.80;;;7.40;99.90;;;;;;5133837;27;20171;-53
2022/10/12 00:36:43;;;;;;;7.88;4.50;;;7.40;99.90;;;;;;5133808;27;20168;-53
2022/10/12 00:39:09;;;;;;;13.27;5.80;;;7.40;99.90;;;;;;5133744;27;20190;-53
2022/10/12 00:41:38;;;;;;;9.50;5.68;;;7.40;99.90;;;;;;5133746;27;20256;-53
2022/10/12 00:44:43;;;;;;;9.98;5.57;;;7.40;99.90;;;;;;5133818;27;20164;-53
2022/10/12 00:47:20;;;;;;;9.60;4.95;;;7.40;99.90;;;;;;5133805;27;20199;-54
2022/10/12 00:49:50;;;;;;;9.38;5.32;;;7.30;99.90;;;;;;5133751;27;20252;-54
2022/10/12 00:52:21;;;;;;;10.60;5.32;;;7.30;99.90;;;;;;5133499;27;20176;-54
2022/10/12 00:54:49;;;;;;;12.15;5.80;;;7.30;99.90;;;;;;5133707;27;20568;-54
2022/10/12 00:57:16;;;;;;;11.60;5.32;;;7.30;99.90;;;;;;5133284;27;20212;-53
2022/10/12 00:59:48;;;;;;;16.10;7.32;;;7.30;99.90;;;;;;5133440;27;20171;-54
2022/10/12 01:02:14;;;;;;;11.93;6.20;;;7.40;99.90;;;;;;5133237;27;20200;-54
2022/10/12 01:04:40;;;;;;;14.40;6.85;;;7.40;99.90;;;;;;5133330;27;20172;-54
2022/10/12 01:07:06;;;;;;;14.20;6.43;;;7.30;99.90;;;;;;5131924;27;20701;-54
2022/10/12 01:09:32;;;;;;;13.73;5.22;;;7.30;99.90;;;;;;5133453;27;20286;-54
2022/10/12 01:11:58;;;;;;;13.27;5.28;;;7.20;99.90;;;;;;5133138;27;20160;-54
2022/10/12 01:14:25;;;;;;;14.65;6.38;;;7.20;99.90;;;;;;5133010;27;20167;-54
2022/10/12 01:17:14;;;;;;;11.85;5.90;;;7.20;99.90;;;;;;5132670;27;20156;-53
2022/10/12 01:20:07;;;;;;;11.77;5.65;;;7.20;99.90;;;;;;5132757;27;20168;-54
2022/10/12 01:22:44;;;;;;;14.35;5.78;;;7.20;99.90;;;;;;5132140;27;20736;-54
2022/10/12 01:25:35;;;;;;;12.32;5.63;;;7.10;99.90;;;;;;5132813;27;20686;-54
2022/10/12 01:28:18;;;;;;;9.52;6.20;;;7.10;99.90;;;;;;5133044;27;20160;-54
2022/10/12 01:30:50;;;;;;;16.70;6.63;;;7.20;99.90;;;;;;5132742;27;20676;-53
2022/10/12 01:33:39;;;;;;;12.40;6.32;;;7.10;99.90;;;;;;5132781;27;20251;-53
2022/10/12 01:36:29;;;;;;;9.02;5.80;;;7.10;99.90;;;;;;5132899;27;20220;-54
2022/10/12 01:39:09;;;;;;;9.95;5.88;;;7.00;99.90;;;;;;5132796;27;20494;-53
2022/10/12 01:41:42;;;;;;;11.18;5.20;;;7.00;99.90;;;;;;5132766;27;20168;-53
2022/10/12 01:44:08;;;;;;;15.00;5.68;;;7.10;99.90;;;;;;5132712;27;20156;-53
2022/10/12 01:46:33;;;;;;;9.23;4.72;;;7.00;99.90;;;;;;5133136;27;20698;-54
2022/10/12 01:49:00;;;;;;;14.48;4.72;;;6.90;99.90;;;;;;5132870;27;20175;-53
2022/10/12 01:51:56;;;;;;;7.50;4.53;;;6.90;99.90;;;;;;5132410;27;20213;-54
2022/10/12 01:54:54;;;;;;;13.40;5.50;;;6.90;99.90;;;;;;5132567;27;20152;-54
2022/10/12 01:57:27;;;;;;;7.53;5.53;;;6.90;99.90;;;;;;5132468;27;20260;-53
2022/10/12 02:00:10;;;;;;;10.93;5.85;;;6.90;99.90;;;;;;5132621;27;20255;-54
2022/10/12 02:02:44;;;;;;;10.65;5.63;;;6.90;99.90;;;;;;5132509;27;20168;-54
2022/10/12 02:05:37;;;;;;;11.13;6.13;;;6.90;99.90;;;;;;5132597;27;20156;-54
2022/10/12 02:08:12;;;;;;;9.23;5.45;;;6.90;99.90;;;;;;5132890;27;20168;-53
2022/10/12 02:10:43;;;;;;;11.25;6.65;;;6.90;99.90;;;;;;5132481;27;20195;-53
2022/10/12 02:13:12;;;;;;;14.05;5.90;;;6.90;99.90;;;;;;5132470;27;20168;-54
2022/10/12 02:15:40;;;;;;;13.43;6.45;;;6.90;99.90;;;;;;5132462;27;20282;-53
2022/10/12 02:18:08;;;;;;;11.75;5.78;;;6.90;99.90;;;;;;5132725;27;20551;-53
2022/10/12 02:20:37;;;;;;;14.88;6.82;;;6.90;99.90;;;;;;5132404;27;20202;-53
2022/10/12 02:23:03;;;;;;;11.38;5.35;;;6.90;99.90;;;;;;5132791;27;20173;-54
2022/10/12 02:25:31;;;;;;;15.35;6.18;;;6.90;99.90;;;;;;5132352;27;20250;-54
2022/10/12 02:28:06;;;;;;;16.55;5.72;;;6.90;99.90;;;;;;5134347;27;20255;-54
2022/10/12 02:30:41;;;;;;;10.05;5.32;;;6.90;99.90;;;;;;5136767;27;20203;-54
2022/10/12 02:33:17;;;;;;;13.35;5.20;;;6.80;99.90;;;;;;5136368;27;20692;-53
2022/10/12 02:35:53;;;;;;;10.73;5.65;;;6.80;99.90;;;;;;5136214;27;20164;-53
2022/10/12 02:38:25;;;;;;;12.77;5.30;;;6.80;99.90;;;;;;5136446;27;20164;-53
2022/10/12 02:40:59;;;;;;;10.55;5.63;;;6.80;99.90;;;;;;5136328;27;20168;-53
2022/10/12 02:43:39;;;;;;;10.57;5.72;;;6.80;99.90;;;;;;5135976;27;20608;-53
2022/10/12 02:46:09;;;;;;;9.73;5.72;;;6.80;99.90;;;;;;5135996;27;20251;-54
2022/10/12 02:48:36;;;;;;;12.32;5.22;;;6.80;99.90;;;;;;5135904;27;20156;-53
2022/10/12 02:51:04;;;;;;;9.50;5.28;;;6.80;99.90;;;;;;5135898;27;20210;-53
2022/10/12 02:53:30;;;;;;;10.98;5.30;;;6.80;99.90;;;;;;5135828;27;20167;-53
2022/10/12 02:56:02;;;;;;;17.73;5.80;;;6.70;99.90;;;;;;5135656;27;20219;-53
2022/10/12 02:58:28;;;;;;;12.13;5.88;;;6.70;99.90;;;;;;5135894;27;20557;-53
2022/10/12 03:00:53;;;;;;;9.98;5.63;;;6.70;99.90;;;;;;5135646;27;20243;-53
2022/10/12 03:03:19;;;;;;;10.13;5.30;;;6.70;99.90;;;;;;5135616;27;20172;-53
2022/10/12 03:05:45;;;;;;;8.90;5.25;;;6.60;99.90;;;;;;5135614;27;20168;-53
2022/10/12 03:08:10;;;;;;;11.20;5.13;;;6.70;99.90;;;;;;5135566;27;20521;-53
2022/10/12 03:10:36;;;;;;;10.30;4.82;;;6.70;99.90;;;;;;5135410;27;20208;-53
2022/10/12 03:13:01;;;;;;;11.95;5.50;;;6.60;99.90;;;;;;5135808;27;20250;-53
2022/10/12 03:15:27;;;;;;;8.57;4.85;;;6.60;99.90;;;;;;5135367;27;20182;-53
2022/10/12 03:17:52;;;;;;;12.90;5.35;;;6.70;99.90;;;;;;5135397;27;21162;-53
2022/10/12 03:20:18;;;;;;;10.88;5.10;;;6.60;99.90;;;;;;5134038;27;20175;-53
2022/10/12 03:22:44;;;;;;;14.50;4.88;;;6.60;99.90;;;;;;5135246;27;20160;-53
2022/10/12 03:25:09;;;;;;;8.20;5.05;;;6.70;99.90;;;;;;5135290;27;20591;-53
2022/10/12 03:27:35;;;;;;;13.65;4.40;;;6.60;99.90;;;;;;5135234;27;20164;-53
2022/10/12 03:30:00;;;;;;;9.52;4.97;;;6.60;99.90;;;;;;5135339;27;20210;-53
2022/10/12 03:32:26;;;;;;;12.88;6.43;;;6.60;99.90;;;;;;5135079;27;20547;-53
2022/10/12 03:34:51;;;;;;;9.43;5.15;;;6.50;99.90;;;;;;5135021;27;20528;-53
2022/10/12 03:37:17;;;;;;;8.30;4.55;;;6.40;99.90;;;;;;5134898;27;20175;-53
2022/10/12 03:39:42;;;;;;;9.40;4.63;;;6.40;99.90;;;;;;5134644;27;20633;-53
2022/10/12 03:42:08;;;;;;;12.57;5.35;;;6.30;99.90;;;;;;5134897;27;20705;-53
2022/10/12 03:44:33;;;;;;;18.67;5.60;;;6.30;99.90;;;;;;5134917;27;20578;-54
2022/10/12 03:46:59;;;;;;;9.00;4.85;;;6.30;99.90;;;;;;5135113;27;20579;-53
2022/10/12 03:49:24;;;;;;;9.68;5.13;;;6.30;99.90;;;;;;5133403;27;20218;-54
2022/10/12 03:51:50;;;;;;;7.80;5.43;;;6.30;99.90;;;;;;5134629;27;20216;-54
2022/10/12 03:54:15;;;;;;;8.18;5.07;;;6.30;99.90;;;;;;5134616;27;20164;-54
2022/10/12 03:56:41;;;;;;;11.82;6.00;;;6.30;99.90;;;;;;5134493;27;20684;-54
2022/10/12 03:59:07;;;;;;;6.85;4.72;;;6.30;99.90;;;;;;5134493;27;20538;-54
2022/10/12 04:01:32;;;;;;;10.57;4.45;;;6.30;99.90;;;;;;5134852;27;20247;-53
2022/10/12 04:03:58;;;;;;;8.98;4.57;;;6.30;99.90;;;;;;5133297;27;20639;-53
2022/10/12 04:06:23;;;;;;;8.93;4.53;;;6.30;99.90;;;;;;5134513;27;20562;-53
2022/10/12 04:08:49;;;;;;;7.90;4.28;;;6.20;99.90;;;;;;5134299;27;20175;-53
2022/10/12 04:11:15;;;;;;;10.13;4.68;;;6.30;99.90;;;;;;5134310;27;20248;-53
2022/10/12 04:13:41;;;;;;;10.60;5.00;;;6.30;99.90;;;;;;5134455;27;20535;-53
2022/10/12 04:16:08;;;;;;;9.25;4.50;;;6.30;99.90;;;;;;5134207;27;20160;-53
2022/10/12 04:18:34;;;;;;;9.15;4.43;;;6.30;99.90;;;;;;5134122;27;20688;-53
2022/10/12 04:21:01;;;;;;;8.93;5.35;;;6.20;99.90;;;;;;5134634;27;20262;-54
2022/10/12 04:23:27;;;;;;;11.40;5.20;;;6.30;99.90;;;;;;5134055;27;20156;-53
2022/10/12 04:25:52;;;;;;;9.75;4.93;;;6.20;99.90;;;;;;5134243;27;20177;-54
2022/10/12 04:28:18;;;;;;;7.45;4.57;;;6.30;99.90;;;;;;5133905;27;20164;-53
2022/10/12 04:30:44;;;;;;;7.72;4.47;;;6.30;99.90;;;;;;5133790;27;20204;-53
2022/10/12 04:33:10;;;;;;;11.82;5.57;;;6.30;99.90;;;;;;5134077;27;20159;-53
2022/10/12 04:35:36;;;;;;;8.93;4.72;;;6.20;99.90;;;;;;5133381;27;20308;-54
2022/10/12 04:38:01;;;;;;;12.90;5.30;;;6.30;99.90;;;;;;5134372;27;20271;-53
2022/10/12 04:40:27;;;;;;;8.25;4.85;;;6.40;99.90;;;;;;5133679;27;20186;-53
2022/10/12 04:42:52;;;;;;;8.88;4.40;;;6.30;99.90;;;;;;5133613;27;20170;-53
2022/10/12 04:45:18;;;;;;;7.22;4.65;;;6.40;99.90;;;;;;5133631;27;20195;-53
2022/10/12 04:47:43;;;;;;;8.52;4.90;;;6.40;99.90;;;;;;5133342;27;20247;-54
2022/10/12 04:50:09;;;;;;;7.40;4.30;;;6.40;99.90;;;;;;5132764;27;20203;-53
2022/10/12 04:52:34;;;;;;;10.88;4.90;;;6.40;99.90;;;;;;5133465;27;20530;-53
2022/10/12 04:55:00;;;;;;;7.82;5.38;;;6.30;99.90;;;;;;5133748;27;20192;-53
2022/10/12 04:57:25;;;;;;;7.90;4.68;;;6.30;99.90;;;;;;5133183;27;20211;-53
2022/10/12 04:59:51;;;;;;;10.82;5.18;;;6.40;99.90;;;;;;5133081;27;20172;-54
2022/10/12 05:02:17;;;;;;;8.35;5.13;;;6.40;99.90;;;;;;5133286;27;20172;-54
2022/10/12 05:04:42;;;;;;;10.80;5.13;;;6.40;99.90;;;;;;5133355;27;20621;-54
2022/10/12 05:07:08;;;;;;;10.38;5.47;;;6.40;99.90;;;;;;5133431;27;20176;-54
2022/10/12 05:09:33;;;;;;;13.18;4.90;;;6.40;99.90;;;;;;5133183;27;20247;-54
2022/10/12 05:11:59;;;;;;;8.73;5.30;;;6.40;99.90;;;;;;5133441;27;20684;-53
2022/10/12 05:14:24;;;;;;;9.48;5.53;;;6.30;99.90;;;;;;5133160;27;20172;-54
2022/10/12 05:16:50;;;;;;;8.50;5.47;;;6.30;99.90;;;;;;5133091;27;20168;-54
2022/10/12 05:19:15;;;;;;;19.58;5.32;;;6.30;99.90;;;;;;5133031;27;20637;-53
2022/10/12 05:21:41;;;;;;;10.95;5.13;;;6.30;99.90;;;;;;5131809;27;20172;-53
2022/10/12 05:24:07;;;;;;;10.02;5.10;;;6.20;99.90;;;;;;5133025;27;20160;-53
2022/10/12 05:26:33;;;;;;;9.40;5.68;;;6.20;99.90;;;;;;5133060;27;20168;-54
2022/10/12 05:28:59;;;;;;;10.82;5.13;;;6.20;99.90;;;;;;5133495;27;20262;-53
2022/10/12 05:31:24;;;;;;;13.20;5.38;;;6.20;99.90;;;;;;5132862;27;20282;-53
2022/10/12 05:33:50;;;;;;;9.68;4.82;;;6.20;99.90;;;;;;5132765;27;20607;-53
2022/10/12 05:36:16;;;;;;;11.93;4.68;;;6.20;99.90;;;;;;5132799;27;20179;-53
2022/10/12 05:38:41;;;;;;;9.43;5.30;;;6.20;99.90;;;;;;5131493;27;20171;-53
2022/10/12 05:41:07;;;;;;;13.57;5.93;;;6.20;99.90;;;;;;5132796;27;20574;-54
2022/10/12 05:43:32;;;;;;;11.70;5.40;;;6.20;99.90;;;;;;5133227;27;20200;-53
2022/10/12 05:45:58;;;;;;;14.82;5.88;;;6.20;99.90;;;;;;5133139;27;20645;-54
2022/10/12 05:48:23;;;;;;;9.82;5.18;;;6.20;99.90;;;;;;5132747;27;20159;-54
2022/10/12 05:50:53;;;;;;;11.55;5.53;;;6.20;99.90;;;;;;5132416;27;20252;-54
2022/10/12 05:53:20;;;;;;;13.07;5.70;;;6.20;99.90;;;;;;5132764;27;20171;-54
2022/10/12 05:55:56;;;;;;;11.88;5.53;;;6.10;99.90;;;;;;5132510;27;20230;-54
2022/10/12 05:58:23;;;;;;;9.95;4.90;;;6.10;99.90;;;;;;5132462;27;20167;-54
2022/10/12 06:00:48;;;;;;;11.10;5.45;;;6.00;99.90;;;;;;5132838;27;20192;-53
2022/10/12 06:03:14;;;;;;;11.73;4.38;;;6.00;99.90;;;;;;5136844;27;20560;-54
2022/10/12 06:05:41;;;;;;;13.63;6.07;;;6.00;99.90;;;;;;5136789;27;20560;-54
2022/10/12 06:08:07;;;;;;;13.38;5.60;;;6.00;99.90;;;;;;5136681;27;20164;-54
2022/10/12 06:10:42;;;;;;;14.27;6.55;;;6.10;99.90;;;;;;5136849;27;20625;-54
2022/10/12 06:13:07;;;;;;;12.77;6.78;;;6.10;99.90;;;;;;5136918;27;20487;-54
2022/10/12 06:15:34;;;;;;;13.70;6.88;;;6.10;99.90;;;;;;5136475;27;20168;-54
2022/10/12 06:18:00;;;;;;;18.35;6.63;;;6.20;99.90;;;;;;5136915;27;20583;-54
2022/10/12 06:20:25;;;;;;;14.75;6.80;;;6.10;99.90;;;;;;5136446;27;20254;-54
2022/10/12 06:22:51;;;;;;;13.20;5.78;;;6.10;99.90;;;;;;5136471;27;20164;-54
2022/10/12 06:25:17;;;;;;;19.55;6.65;;;6.20;99.90;;;;;;5136354;27;20164;-54
2022/10/12 06:27:44;;;;;;;12.95;6.50;;;6.20;99.90;;;;;;5136479;27;20164;-54
2022/10/12 06:30:11;;;;;;;12.45;6.05;;;6.20;99.90;;;;;;5136428;27;20203;-54
2022/10/12 06:32:36;;;;;;;10.40;6.50;;;6.20;99.90;;;;;;5136275;27;20164;-53
2022/10/12 06:35:02;;;;;;;11.18;6.65;;;6.20;99.90;;;;;;5136465;27;20613;-54
2022/10/12 06:37:28;;;;;;;13.98;7.15;;;6.30;99.90;;;;;;5136473;27;20164;-53
2022/10/12 06:39:54;;;;;;;12.90;5.82;;;6.30;99.90;;;;;;5136319;27;20281;-53
2022/10/12 06:42:20;;;;;;;8.15;6.10;;;6.30;99.90;;;;;;5135955;27;20195;-53
2022/10/12 06:44:46;;;;;;;10.38;5.47;;;6.40;99.90;;;;;;5135950;27;20191;-54
2022/10/12 06:47:11;;;;;;;11.75;5.57;;;6.40;99.90;;;;;;5135940;27;20164;-54
2022/10/12 06:49:37;;;;;;;12.10;6.28;;;6.50;99.90;;;;;;5134832;27;20199;-53
2022/10/12 06:52:03;;;;;;;15.55;5.88;;;6.60;99.90;;;;;;5135811;27;20168;-54
2022/10/12 06:54:28;;;;;;;13.95;6.22;;;6.60;99.90;;;;;;5136264;27;20218;-54
2022/10/12 06:56:54;;;;;;;13.75;5.95;;;6.80;99.90;;;;;;5135648;27;20211;-53
2022/10/12 06:59:21;;;;;;;17.60;6.43;;;6.80;99.90;;;;;;5134473;27;20167;-54
2022/10/12 07:01:47;;;;;;;13.88;5.88;;;6.90;99.90;;;;;;5135734;27;20163;-53
2022/10/12 07:04:13;;;;;;;12.60;7.10;;;7.00;99.90;;;;;;5134168;27;20168;-53
2022/10/12 07:06:38;;;;;;;16.10;7.47;;;7.00;99.90;;;;;;5135453;27;20167;-56
2022/10/12 07:09:04;;;;;;;10.75;6.10;;;7.20;99.90;;;;;;5135405;27;20176;-54
2022/10/12 07:11:29;;;;;;;9.65;6.30;;;7.30;99.90;;;;;;5135584;27;20286;-54
2022/10/12 07:13:57;;;;;;;16.45;8.00;;;7.50;99.90;;;;;;5134637;27;20212;-51
2022/10/12 07:16:23;;;;;;;18.55;6.65;;;7.60;99.90;;;;;;5134300;27;20176;-52
2022/10/12 07:18:49;;;;;;;8.57;5.53;;;7.70;99.90;;;;;;5135396;27;20171;-51
2022/10/12 07:21:15;;;;;;;14.48;6.63;;;7.80;99.90;;;;;;5135238;27;20152;-52
2022/10/12 07:23:41;;;;;;;14.20;6.57;;;8.00;99.90;;;;;;5135049;27;20324;-56
2022/10/12 07:26:07;;;;;;;10.23;6.30;;;8.10;99.90;;;;;;5135336;27;20175;-52
2022/10/12 07:28:34;;;;;;;13.88;6.63;;;8.20;99.90;;;;;;5135303;27;20179;-51
2022/10/12 07:31:05;;;;;;;13.65;6.75;;;8.20;99.90;;;;;;5135552;27;20211;-51
2022/10/12 07:33:35;;;;;;;12.82;6.38;;;8.30;99.90;;;;;;5135561;27;20164;-52
2022/10/12 07:36:01;;;;;;;12.10;5.95;;;8.30;99.90;;;;;;5135244;27;20164;-51
2022/10/12 07:38:27;;;;;;;14.65;5.72;;;8.30;99.90;;;;;;5135199;27;20224;-52
2022/10/12 07:40:53;;;;;;;15.43;6.20;;;8.30;99.90;;;;;;5134763;27;20172;-52
2022/10/12 07:43:19;;;;;;;13.23;6.43;;;8.30;99.90;;;;;;5134814;27;20548;-52
2022/10/12 07:45:46;;;;;;;10.02;5.78;;;8.40;99.90;;;;;;5134751;27;20200;-52
2022/10/12 07:48:11;;;;;;;15.48;6.28;;;8.50;99.90;;;;;;5134655;27;20164;-51
2022/10/12 07:50:37;;;;;;;11.50;5.72;;;8.40;99.90;;;;;;5134403;27;20252;-53
2022/10/12 07:53:03;;;;;;;11.20;6.22;;;8.60;99.90;;;;;;5134573;27;20210;-52
2022/10/12 07:55:30;;;;;;;10.90;5.63;;;8.60;99.90;;;;;;5134607;27;20695;-53
2022/10/12 07:58:00;;;;;;;13.13;6.57;;;8.80;99.90;;;;;;5134754;27;20172;-53
2022/10/12 08:00:27;;;;;;;9.63;5.22;;;8.90;99.90;;;;;;5134331;27;20579;-52
2022/10/12 08:02:53;;;;;;;13.13;5.93;;;9.00;99.90;;;;;;5134333;27;20550;-52
2022/10/12 08:05:22;;;;;;;9.65;5.97;;;9.10;99.90;;;;;;5134338;27;20221;-52
2022/10/12 08:07:49;;;;;;;14.93;6.80;;;9.20;99.90;;;;;;5134287;27;20231;-52
2022/10/12 08:10:16;;;;;;;15.52;6.00;;;9.40;99.90;;;;;;5134079;27;20239;-53
2022/10/12 08:12:43;;;;;;;12.63;6.78;;;9.40;99.90;;;;;;5133007;27;20246;-52
2022/10/12 08:15:09;;;;;;;14.68;6.70;;;9.40;99.90;;;;;;5132553;27;20176;-52
2022/10/12 08:17:34;;;;;;;13.77;6.63;;;9.50;99.90;;;;;;5134054;27;20229;-52
2022/10/12 08:20:00;;;;;;;15.52;7.30;;;9.70;99.90;;;;;;5134595;27;20175;-54
2022/10/12 08:22:25;;;;;;;13.45;7.70;;;9.60;99.90;;;;;;5134333;27;20164;-52
2022/10/12 08:24:51;;;;;;;16.73;8.18;;;9.90;99.90;;;;;;5132876;27;20156;-52
2022/10/12 08:27:17;;;;;;;13.73;7.55;;;10.00;99.90;;;;;;5134153;27;20170;-52
2022/10/12 08:29:42;;;;;;;15.05;7.72;;;10.20;99.90;;;;;;5133781;27;20199;-53
2022/10/12 08:32:08;;;;;;;14.38;7.57;;;10.30;99.90;;;;;;5133763;27;20648;-52
2022/10/12 08:34:33;;;;;;;16.83;7.68;;;10.10;99.90;;;;;;5133748;27;20240;-52
2022/10/12 08:36:59;;;;;;;12.27;7.65;;;10.30;99.90;;;;;;5132741;27;20224;-53
2022/10/12 08:39:25;;;;;;;16.73;7.50;;;10.20;99.90;;;;;;5133512;27;20164;-53
2022/10/12 08:42:10;;;;;;;16.40;9.20;;;10.10;99.90;;;;;;5133249;27;20171;-52
2022/10/12 08:44:52;;;;;;;17.88;9.07;;;10.00;99.90;;;;;;5133237;27;20255;-52
2022/10/12 08:47:28;;;;;;;14.90;8.32;;;10.20;99.90;;;;;;5133103;27;20168;-52
2022/10/12 08:49:53;;;;;;;18.80;8.90;;;10.30;99.90;;;;;;5132086;27;20203;-53
2022/10/12 08:52:33;;;;;;;22.33;11.88;;;10.40;99.90;;;;;;5133352;27;20522;-53
2022/10/12 08:55:33;;;;;;;25.85;13.20;;;10.40;99.90;;;;;;5133385;27;20170;-53
2022/10/12 08:58:15;;;;;;;14.80;8.73;;;10.80;99.90;;;;;;5171202;27;20274;-51
2022/10/12 09:00:41;;;;;;;22.85;10.45;;;10.80;99.90;;;;;;5140580;27;20168;-51
2022/10/12 09:03:17;;;;;;;18.60;9.20;;;10.90;99.90;;;;;;5129870;28;20175;-51
2022/10/12 09:05:59;;;;;;;16.42;8.48;;;11.00;99.90;;;;;;5129775;28;20168;-50
2022/10/12 09:08:46;;;;;;;21.08;9.95;;;11.10;99.90;;;;;;5129656;28;20168;-51
2022/10/12 09:11:47;;;;;;;14.18;9.30;;;10.90;99.90;;;;;;5129594;28;20427;-51
2022/10/12 09:14:25;;;;;;;17.73;9.50;;;11.00;99.90;;;;;;5129613;28;20164;-51
2022/10/12 09:16:53;;;;;;;16.27;8.73;;;11.10;99.90;;;;;;5111066;28;20574;-54
2022/10/12 09:19:23;;;;;;;17.77;9.90;;;11.20;99.90;;;;;;5129732;28;20168;-53
2022/10/12 09:21:49;;;;;;;21.50;9.30;;;11.50;99.90;;;;;;5129662;28;20160;-54
2022/10/12 09:24:22;;;;;;;14.45;8.60;;;11.70;99.90;;;;;;5129275;28;20302;-53
2022/10/12 09:26:52;;;;;;;16.35;10.10;;;11.70;99.90;;;;;;5129287;28;20176;-51
2022/10/12 09:29:27;;;;;;;16.95;10.15;;;11.60;99.90;;;;;;5129273;28;20494;-53
2022/10/12 09:32:01;;;;;;;16.02;9.15;;;11.60;99.90;;;;;;5129483;28;20677;-51
2022/10/12 09:34:27;;;;;;;19.20;8.95;;;11.70;99.90;;;;;;5129732;28;20168;-51
2022/10/12 09:36:54;;;;;;;13.60;9.25;;;11.80;99.90;;;;;;5129560;28;20199;-51
2022/10/12 09:39:27;;;;;;;14.07;8.35;;;12.20;99.90;;;;;;5129357;28;20624;-51
2022/10/12 09:41:53;;;;;;;15.48;10.48;;;12.40;99.90;;;;;;5110902;28;20508;-53
2022/10/12 09:44:39;;;;;;;15.77;9.15;;;12.70;99.90;;;;;;5129600;28;20179;-53
2022/10/12 09:47:22;;;;;;;20.13;8.60;;;12.90;99.90;;;;;;5129243;28;20164;-52
2022/10/12 09:49:52;;;;;;;16.90;8.60;;;13.00;99.90;;;;;;5129076;28;20179;-52
2022/10/12 09:52:23;;;;;;;15.05;8.35;;;13.20;99.90;;;;;;5129314;28;20255;-52
2022/10/12 09:54:56;;;;;;;17.60;8.80;;;13.20;99.90;;;;;;5129041;28;20160;-52
2022/10/12 09:57:29;;;;;;;13.02;8.65;;;13.30;99.90;;;;;;5128770;28;20224;-51
2022/10/12 09:59:55;;;;;;;19.27;9.13;;;13.50;99.90;;;;;;5128941;28;20186;-53
2022/10/12 10:02:23;;;;;;;13.85;7.90;;;13.60;99.90;;;;;;5128935;28;20173;-52
2022/10/12 10:04:51;;;;;;;17.17;8.18;;;13.50;99.90;;;;;;5128790;28;20175;-52
2022/10/12 10:07:26;;;;;;;20.48;7.60;;;13.50;99.90;;;;;;5127533;28;20168;-52
2022/10/12 10:10:17;;;;;;;12.40;7.88;;;13.70;99.90;;;;;;5114736;28;20165;-52
2022/10/12 10:13:00;;;;;;;12.35;7.40;;;13.30;99.90;;;;;;5115252;28;20281;-53
2022/10/12 10:15:35;;;;;;;13.68;7.53;;;13.30;99.90;;;;;;5115289;28;20180;-53
2022/10/12 10:18:19;;;;;;;13.40;7.05;;;13.40;99.90;;;;;;5115057;28;20682;-51
2022/10/12 10:20:56;;;;;;;11.82;6.90;;;13.60;99.90;;;;;;5114720;28;20682;-53
2022/10/12 10:24:03;;;;;;;18.17;6.90;;;13.80;99.90;;;;;;5114822;28;20165;-51
2022/10/12 10:26:49;;;;;;;10.23;6.00;;;13.80;99.90;;;;;;5110207;28;20506;-53
2022/10/12 10:29:21;;;;;;;10.57;4.88;;;13.90;99.90;;;;;;5115007;28;20168;-52
2022/10/12 10:31:47;;;;;;;11.57;4.75;;;13.70;99.90;;;;;;5114660;28;20243;-52
2022/10/12 10:34:19;;;;;;;12.77;5.60;;;13.90;99.90;;;;;;5114580;28;20194;-52
2022/10/12 10:36:46;;;;;;;11.65;5.07;;;13.70;99.90;;;;;;5113510;28;20192;-54
2022/10/12 10:39:18;;;;;;;13.73;5.30;;;13.60;99.90;;;;;;5114238;28;20632;-54
2022/10/12 10:41:44;;;;;;;13.70;5.18;;;13.60;99.90;;;;;;5114133;28;20296;-54
2022/10/12 10:44:31;;;;;;;17.58;6.25;;;13.60;99.90;;;;;;5114217;28;20203;-53
2022/10/12 10:47:07;;;;;;;13.25;4.90;;;13.60;99.90;;;;;;5114335;28;20168;-53
2022/10/12 10:49:39;;;;;;;9.65;4.72;;;13.50;99.90;;;;;;5114231;28;20214;-53
2022/10/12 10:52:07;;;;;;;10.85;4.22;;;13.30;99.90;;;;;;5114000;28;20525;-52
2022/10/12 10:54:37;;;;;;;11.95;4.13;;;13.50;99.90;;;;;;5095802;28;20575;-52
2022/10/12 10:57:17;;;;;;;10.23;3.63;;;13.40;99.90;;;;;;5113966;28;20221;-52
2022/10/12 11:00:02;;;;;;;13.05;4.07;;;13.50;99.90;;;;;;5114052;28;20156;-52
2022/10/12 11:02:35;;;;;;;10.05;3.22;;;13.40;99.90;;;;;;5114301;28;20213;-54
2022/10/12 11:05:27;;;;;;;9.43;3.30;;;13.40;99.90;;;;;;5113963;28;20222;-52
2022/10/12 11:07:58;;;;;;;9.32;3.65;;;13.40;99.90;;;;;;5114239;28;20164;-52
2022/10/12 11:10:47;;;;;;;6.60;2.75;;;13.40;99.90;;;;;;5113481;28;20663;-52
2022/10/12 11:13:22;;;;;;;6.57;2.28;;;13.30;99.90;;;;;;5113772;28;20196;-51
2022/10/12 11:16:02;;;;;;;7.53;2.53;;;13.50;99.90;;;;;;5113676;28;20309;-52
2022/10/12 11:18:36;;;;;;;7.18;2.75;;;13.50;99.90;;;;;;5113889;28;20167;-52
2022/10/12 11:21:18;;;;;;;8.82;2.70;;;13.50;99.90;;;;;;5112631;28;20197;-51
2022/10/12 11:24:03;;;;;;;8.15;2.72;;;13.80;99.90;;;;;;5113340;28;20157;-51
2022/10/12 11:26:35;;;;;;;6.40;2.78;;;13.60;99.90;;;;;;5113871;28;20195;-51
2022/10/12 11:29:01;;;;;;;7.80;3.20;;;13.60;99.90;;;;;;5113405;28;20169;-52
2022/10/12 11:31:36;;;;;;;8.75;2.92;;;13.60;99.90;;;;;;5113879;28;20631;-52
2022/10/12 11:34:07;;;;;;;11.98;3.08;;;13.70;99.90;;;;;;5113508;28;20209;-52
2022/10/12 11:36:37;;;;;;;12.45;3.53;;;13.90;99.90;;;;;;5113416;28;20232;-51
2022/10/12 11:39:07;;;;;;;9.15;2.80;;;13.80;99.90;;;;;;5112927;28;20195;-51
2022/10/12 11:41:47;;;;;;;5.72;2.63;;;13.80;99.90;;;;;;5113231;28;20526;-51
2022/10/12 11:44:35;;;;;;;6.20;3.03;;;13.90;99.90;;;;;;5115821;27;20710;-51
2022/10/12 11:47:25;;;;;;;5.68;2.45;;;14.00;99.90;;;;;;5109019;27;20212;-51
2022/10/12 11:49:54;;;;;;;13.75;3.58;;;14.10;99.90;;;;;;5133636;27;20167;-51
2022/10/12 11:52:20;;;;;;;11.30;4.22;;;14.00;99.90;;;;;;5133586;27;20173;-51
2022/10/12 11:54:54;;;;;;;8.75;3.60;;;13.90;99.90;;;;;;5133558;27;20191;-51
2022/10/12 11:57:30;;;;;;;17.38;4.22;;;13.80;99.90;;;;;;5133324;27;20219;-51
2022/10/12 11:59:58;;;;;;;15.35;3.65;;;13.80;99.90;;;;;;5134002;27;20623;-51
2022/10/12 12:02:40;;;;;;;10.02;3.40;;;13.80;99.90;;;;;;5133410;27;20190;-51
2022/10/12 12:05:11;;;;;;;7.90;3.05;;;13.90;99.90;;;;;;5133638;27;20255;-51
2022/10/12 12:07:40;;;;;;;11.57;3.55;;;13.90;99.90;;;;;;5133108;27;20160;-51
2022/10/12 12:10:24;;;;;;;9.57;3.55;;;13.90;99.90;;;;;;5133356;27;20207;-51
2022/10/12 12:13:10;;;;;;;8.40;3.28;;;14.00;99.90;;;;;;5132541;27;20159;-52
2022/10/12 12:15:37;;;;;;;6.55;3.00;;;14.10;99.90;;;;;;5133180;27;20227;-51
2022/10/12 12:18:09;;;;;;;10.10;2.90;;;14.10;99.90;;;;;;5132934;27;20298;-52
2022/10/12 12:20:44;;;;;;;9.05;3.63;;;14.20;99.90;;;;;;5133049;27;20182;-51
2022/10/12 12:23:21;;;;;;;9.98;3.53;;;14.30;99.90;;;;;;5132095;27;20574;-51
2022/10/12 12:25:47;;;;;;;8.25;3.10;;;14.40;99.90;;;;;;5114496;27;20159;-51
2022/10/12 12:28:23;;;;;;;15.25;6.38;;;14.50;99.90;;;;;;5132706;27;20252;-51
2022/10/12 12:31:23;;;;;;;15.45;7.60;;;14.50;99.90;;;;;;5132496;27;20210;-51
2022/10/12 12:34:21;;;;;;;15.55;6.30;;;14.60;99.90;;;;;;5132786;27;20175;-51
2022/10/12 12:36:49;;;;;;;8.90;3.65;;;14.70;99.90;;;;;;5131798;27;20222;-51
2022/10/12 12:39:36;;;;;;;9.55;3.17;;;14.80;99.90;;;;;;5132657;27;20174;-51
2022/10/12 12:42:05;;;;;;;12.43;3.65;;;14.80;99.90;;;;;;5132423;27;20177;-51
2022/10/12 12:44:36;;;;;;;5.60;3.28;;;15.00;99.90;;;;;;5133118;27;20175;-51
2022/10/12 12:47:02;;;;;;;10.32;3.60;;;15.00;99.90;;;;;;5132498;27;20174;-51
2022/10/12 12:49:47;;;;;;;16.02;3.25;;;15.10;99.90;;;;;;5132821;27;20176;-52
2022/10/12 12:52:27;;;;;;;10.90;3.95;;;15.20;99.90;;;;;;5131612;27;20175;-53
2022/10/12 12:54:58;;;;;;;10.65;4.07;;;15.30;99.90;;;;;;5133029;28;20164;-52
2022/10/12 12:57:36;;;;;;;12.75;3.72;;;15.50;99.90;;;;;;5132032;28;20612;-52
2022/10/12 13:00:13;;;;;;;7.97;3.47;;;15.50;99.90;;;;;;5131897;28;20214;-52
2022/10/12 13:02:57;;;;;;;4.22;3.03;;;15.50;99.90;;;;;;5132558;28;20179;-52